Terminal Aerodrome Forecast
Issued by NWS

Home | Current Version | Previous Version | Text Only | Print | Product List | Glossary On
Versions: 1 2 3 4 5 6 7 8 9 10 11 12 13 14 15 16 17 18 19 20 21 22 23 24 25 26 27 28 29 30
000
FTUS44 KHGX 111510 AAA
TAFUTS
TAF AMD
KUTS 111510Z 1115/1212 22012G22KT P6SM SKC
     FM120100 19006KT P6SM FEW300
     FM121100 22004KT 6SM BR SCT250=

USA.gov is the U.S. government's official web portal to all federal, state and local government web resources and services.